CRA weather

Cinera Airport
CĂșcuta, Norte de Santander Department, Colombia

Public forecast

Using degrees Celsius for public forecast. Weather courtesy of forecast.io.

Closest aviation weather report (METAR) to Cinera Airport

Report is more than 6 hours old.

Closest report is La Fria Airport, 13.8 nm (25.6 km) E. Retrieved 2017/09/20 18:00 UTC (2 years ago):

SVLF 201800Z 00000KT 9999 SCT040 XX/XX Q1010

Closest aviation forecast (TAF) to Cinera Airport

Closest forecast is Camilo Daza International Airport, 16.4 nm (30.3 km) S. Retrieved 2019/10/18 18:42 UTC (2 hours ago):

TAF TAF SKCC 181630Z 1818/1918 36012KT 8000 SCT020 BKN090 TEMPO 1821/1824 5000 TSRA SCT018CB BECMG 1902/1903 VRB02KT TEMPO 1908/1912 4000 BCFG BKN009 TX31/1818Z TN24/1911Z